CheckWX is a tool to help pilots better visualize weather data.  It is not intended as a substitute for an official pre-flight weather briefing.

19:44:30 UTC

DAAE METAR
Soummam Airport
Béjaïa, Algeria
Current

45 mins ago

DAAE 261900Z 22005KT 8000 FEW020 FEW023TCU SCT040 19/14 Q1014
Observed
May-26 @ 19:00 UTC
Wind
  • 220° at 5 KTS
Visibility
7,998 meters
Flight Rules
MVFR
Cloud Levels
  • Few at 2,000' AGL
  • Few at 2,300' AGL
  • Scattered at 4,000' AGL
Temperature
19°C / 66°F
Dewpoint
14°C / 57°F
Humidity
73%
Altimeter
29.94" Hg
Pressure
1013.92 hPa
Previous

2 hours ago

DAAE 261800Z 27006KT 8000 FEW020 FEW023TCU SCT040 20/14 Q1014
Observed
May-26 @ 18:00 UTC
Wind
  • 270° at 6 KTS
Visibility
7,998 meters
Flight Rules
MVFR
Cloud Levels
  • Few at 2,000' AGL
  • Few at 2,300' AGL
  • Scattered at 4,000' AGL
Temperature
20°C / 68°F
Dewpoint
14°C / 57°F
Humidity
69%
Altimeter
29.94" Hg
Pressure
1013.92 hPa
Previous

3 hours ago

DAAE 261700Z 29011KT 8000 FEW020 FEW023TCU SCT090 20/14 Q1014
Observed
May-26 @ 17:00 UTC
Wind
  • 290° at 11 KTS
Visibility
7,998 meters
Flight Rules
MVFR
Cloud Levels
  • Few at 2,000' AGL
  • Few at 2,300' AGL
  • Scattered at 9,000' AGL
Temperature
20°C / 68°F
Dewpoint
14°C / 57°F
Humidity
69%
Altimeter
29.94" Hg
Pressure
1013.92 hPa